Merbes-le-Chateau, Belgium
Current Conditions -  °F | °C
As of 5:20 AM on Monday 26 Jan 2015 (Local Time) from EBCI Reporting Station
Light Rain Light Rain  
Wind Chill: 30°   Ceiling: 300
Heat Index: 37°   Visibility: 0.68mi
Dew Point: 37°   Wind: 10mph
Humidity: 100%   Direction: 200°SSW
Pressure: 30.21"   Gusts: NA
Location:  50.32°N, 4.16°E
Report Text: EBCI 260420Z 20009KT 1100 R25/1300N -DZRA BR BKN003 BKN005 03/03 Q1023 R25/290095 TEMPO 0500 FG BKN002
Loading
Personal Weather Stations






























Interactive Weather Map New forecast layout! Learn more

10-Day Weather Forecast

Advertisements
Track Severe Weather on mobile